createdAt,value
2022-11-17T00:00:25.900Z,90.19
2022-11-17T00:05:27.911Z,90.13
2022-11-17T00:10:29.533Z,90.40
2022-11-17T00:15:31.196Z,90.76
2022-11-17T00:20:51.517Z,90.95
2022-11-17T00:25:53.117Z,90.58
2022-11-17T00:31:13.120Z,91.21
2022-11-17T00:36:15.015Z,91.30
2022-11-17T00:41:16.631Z,91.19
2022-11-17T00:46:18.213Z,91.08
2022-11-17T00:51:20.146Z,90.90
2022-11-17T00:56:22.081Z,91.58
2022-11-17T01:01:24.507Z,91.58
2022-11-17T01:06:26.304Z,91.63
2022-11-17T01:11:28.488Z,91.67
2022-11-17T01:16:31.364Z,91.69
2022-11-17T01:21:33.009Z,91.54
2022-11-17T01:26:36.392Z,91.68
2022-11-17T01:31:41.161Z,90.91
2022-11-17T01:37:02.244Z,90.63
2022-11-17T01:42:19.304Z,90.60
2022-11-17T01:47:26.345Z,90.56
2022-11-17T01:52:28.634Z,90.39
2022-11-17T01:57:36.976Z,90.37
2022-11-17T02:02:39.727Z,91.14
2022-11-17T02:07:42.645Z,90.85
2022-11-17T02:12:45.050Z,90.77
2022-11-17T02:17:46.869Z,90.72
2022-11-17T02:23:16.539Z,90.80
2022-11-17T02:28:28.206Z,90.14
2022-11-17T02:34:11.413Z,90.24
2022-11-17T02:39:41.627Z,89.96
2022-11-17T02:44:55.987Z,89.80
2022-11-17T02:50:01.868Z,90.44
2022-11-17T02:55:06.929Z,89.58
2022-11-17T03:00:19.573Z,90.01
2022-11-17T03:05:51.993Z,90.44
2022-11-17T03:11:02.898Z,89.96
2022-11-17T03:16:16.630Z,90.13
2022-11-17T03:21:22.305Z,89.89
2022-11-17T03:26:29.484Z,89.98
2022-11-17T03:31:31.551Z,90.35
2022-11-17T03:36:35.747Z,90.11
2022-11-17T03:41:42.347Z,90.27
2022-11-17T03:46:44.701Z,90.31
2022-11-17T03:51:46.604Z,90.92
2022-11-17T03:56:59.405Z,90.57
2022-11-17T04:02:01.058Z,90.56
2022-11-17T04:07:02.764Z,90.55
2022-11-17T04:12:23.209Z,90.43
2022-11-17T04:17:24.835Z,91.17
2022-11-17T04:22:26.532Z,90.46
2022-11-17T04:27:46.743Z,90.70
2022-11-17T04:32:48.509Z,90.18
2022-11-17T04:37:50.164Z,90.57
2022-11-17T04:42:51.765Z,90.10
2022-11-17T04:47:53.426Z,90.32
2022-11-17T04:52:55.022Z,90.05
2022-11-17T04:57:56.662Z,90.14
2022-11-17T05:02:58.341Z,90.15
2022-11-17T05:08:00.089Z,90.47
2022-11-17T05:13:20.420Z,89.82
2022-11-17T05:18:21.995Z,89.34
2022-11-17T05:23:42.303Z,89.41
2022-11-17T05:28:43.951Z,88.66
2022-11-17T05:33:45.615Z,88.89
2022-11-17T05:38:48.450Z,88.62
2022-11-17T05:43:50.579Z,88.97
2022-11-17T05:48:53.124Z,88.22
2022-11-17T05:53:54.782Z,88.04
2022-11-17T05:59:27.873Z,88.32
2022-11-17T06:04:30.633Z,88.03
2022-11-17T06:09:34.292Z,87.83
2022-11-17T06:14:37.803Z,87.59
2022-11-17T06:19:42.622Z,87.35
2022-11-17T06:24:44.955Z,87.49
2022-11-17T06:29:47.120Z,87.39
2022-11-17T06:34:55.179Z,87.16
2022-11-17T06:39:57.853Z,86.46
2022-11-17T06:44:59.487Z,86.07
2022-11-17T06:50:01.166Z,86.06
2022-11-17T06:55:02.945Z,86.50
2022-11-17T07:00:06.275Z,86.38
2022-11-17T07:05:08.248Z,85.48
2022-11-17T07:10:10.291Z,85.52
2022-11-17T07:15:11.917Z,85.85
2022-11-17T07:20:13.978Z,85.39
2022-11-17T07:25:21.064Z,86.48
2022-11-17T07:30:23.998Z,85.45
2022-11-17T07:35:25.683Z,84.71
2022-11-17T07:40:30.739Z,84.52
2022-11-17T07:45:32.564Z,84.73
2022-11-17T07:50:35.044Z,84.60
2022-11-17T07:55:36.651Z,84.67
2022-11-17T08:00:38.448Z,84.45
2022-11-17T08:05:43.703Z,83.80
2022-11-17T08:10:45.652Z,83.72
2022-11-17T08:15:47.329Z,83.33
2022-11-17T08:20:49.083Z,83.63
2022-11-17T08:25:50.742Z,83.35
2022-11-17T08:30:52.345Z,83.49
2022-11-17T08:35:58.253Z,83.32
2022-11-17T08:41:02.968Z,84.04
2022-11-17T08:46:04.880Z,83.52
2022-11-17T08:51:08.161Z,83.86
2022-11-17T08:56:11.659Z,83.88
2022-11-17T09:01:18.347Z,83.80
2022-11-17T09:06:20.227Z,83.02
2022-11-17T09:11:22.107Z,83.26
2022-11-17T09:16:25.416Z,83.28
2022-11-17T09:21:27.346Z,83.92
2022-11-17T09:26:28.981Z,83.72
2022-11-17T09:31:30.908Z,83.48
2022-11-17T09:36:33.093Z,83.83
2022-11-17T09:41:41.471Z,84.29
2022-11-17T09:46:54.997Z,83.96
2022-11-17T09:51:58.550Z,83.69
2022-11-17T09:57:01.012Z,83.64
2022-11-17T10:02:02.836Z,83.38
2022-11-17T10:07:04.749Z,84.16
2022-11-17T10:12:27.763Z,84.32
2022-11-17T10:17:29.603Z,84.40
2022-11-17T10:22:36.285Z,84.52
2022-11-17T10:27:44.258Z,84.65
2022-11-17T10:32:57.167Z,84.22
2022-11-17T10:38:00.768Z,84.27
2022-11-17T10:43:14.585Z,83.95
2022-11-17T10:48:25.012Z,84.72
2022-11-17T10:53:30.280Z,85.12
2022-11-17T10:58:33.612Z,85.53
2022-11-17T11:03:36.092Z,85.80
2022-11-17T11:08:56.363Z,86.00
2022-11-17T11:14:01.408Z,85.86
2022-11-17T11:19:03.100Z,86.10
2022-11-17T11:24:07.707Z,86.44
2022-11-17T11:29:23.129Z,86.36
2022-11-17T11:34:52.964Z,86.66
2022-11-17T11:40:15.588Z,86.80
2022-11-17T11:45:43.348Z,86.04
2022-11-17T11:50:58.240Z,85.96
2022-11-17T11:56:10.785Z,85.36
2022-11-17T12:01:13.417Z,85.56
2022-11-17T12:06:36.795Z,85.22
2022-11-17T12:11:59.090Z,84.94
2022-11-17T12:17:23.387Z,84.95
2022-11-17T12:22:33.911Z,85.43
2022-11-17T12:27:35.613Z,85.75
2022-11-17T12:32:49.159Z,86.35
2022-11-17T12:38:23.220Z,86.82
2022-11-17T12:43:26.510Z,87.72
2022-11-17T12:48:36.229Z,88.64
2022-11-17T12:53:39.453Z,89.78
2022-11-17T12:58:59.959Z,89.88
2022-11-17T13:04:01.604Z,90.23
2022-11-17T13:09:11.999Z,90.95
2022-11-17T13:14:16.204Z,90.52
2022-11-17T13:19:30.390Z,90.83
2022-11-17T13:24:35.251Z,91.27
2022-11-17T13:29:37.838Z,92.35
2022-11-17T13:34:49.834Z,92.20
2022-11-17T13:40:02.558Z,92.37
2022-11-17T13:45:05.270Z,92.69
2022-11-17T13:50:31.882Z,92.35
2022-11-17T13:55:34.107Z,93.06
2022-11-17T14:00:35.870Z,92.41
2022-11-17T14:05:37.471Z,91.95
2022-11-17T14:10:39.735Z,92.91
2022-11-17T14:15:42.295Z,92.19
2022-11-17T14:20:43.927Z,91.29
2022-11-17T14:25:50.264Z,91.26
2022-11-17T14:30:54.050Z,91.14
2022-11-17T14:35:58.463Z,91.26
2022-11-17T14:41:00.211Z,91.16
2022-11-17T14:46:02.846Z,90.41
2022-11-17T14:51:04.577Z,89.46
2022-11-17T14:56:09.970Z,89.77
2022-11-17T15:01:15.581Z,89.87
2022-11-17T15:06:20.165Z,90.20
2022-11-17T15:11:22.125Z,90.75
2022-11-17T15:16:23.771Z,90.17
2022-11-17T15:21:25.879Z,89.77
2022-11-17T15:26:27.601Z,89.95
2022-11-17T15:31:29.787Z,90.71
2022-11-17T15:36:32.069Z,90.66
2022-11-17T15:41:33.749Z,89.96
2022-11-17T15:46:35.799Z,90.08
2022-11-17T15:51:37.534Z,89.29
2022-11-17T15:56:39.210Z,89.46
2022-11-17T16:01:41.132Z,89.59
2022-11-17T16:06:44.595Z,89.55
2022-11-17T16:11:46.446Z,89.62
2022-11-17T16:16:48.247Z,89.39
2022-11-17T16:21:50.059Z,89.61
2022-11-17T16:26:51.893Z,89.91
2022-11-17T16:31:55.320Z,89.96
2022-11-17T16:36:56.980Z,90.31
2022-11-17T16:42:00.198Z,91.52
2022-11-17T16:47:01.863Z,91.37
2022-11-17T16:52:03.501Z,91.70
2022-11-17T16:57:05.153Z,92.23
2022-11-17T17:02:06.795Z,92.20
2022-11-17T17:07:08.482Z,91.81
2022-11-17T17:12:10.470Z,92.24
2022-11-17T17:17:12.166Z,91.87
2022-11-17T17:22:13.761Z,91.39
2022-11-17T17:27:15.630Z,91.72
2022-11-17T17:32:17.274Z,91.60
2022-11-17T17:37:18.960Z,90.89
2022-11-17T17:42:20.569Z,91.01
2022-11-17T17:47:23.237Z,90.94
2022-11-17T17:52:24.895Z,89.58
2022-11-17T17:57:29.873Z,90.19
2022-11-17T18:02:34.615Z,90.35
2022-11-17T18:07:36.300Z,90.05
2022-11-17T18:12:38.056Z,90.44
2022-11-17T18:17:39.742Z,90.49
2022-11-17T18:22:41.383Z,91.09
2022-11-17T18:27:43.320Z,91.41
2022-11-17T18:32:45.018Z,91.23
2022-11-17T18:37:46.615Z,91.51
2022-11-17T18:42:48.253Z,91.75
2022-11-17T18:47:49.902Z,91.62
2022-11-17T18:52:52.082Z,91.65
2022-11-17T18:57:53.731Z,91.37
2022-11-17T19:02:55.413Z,92.26
2022-11-17T19:07:57.361Z,91.81
2022-11-17T19:12:58.989Z,91.19
2022-11-17T19:18:00.626Z,91.39
2022-11-17T19:23:02.448Z,91.73
2022-11-17T19:28:04.775Z,91.64
2022-11-17T19:33:06.448Z,91.19
2022-11-17T19:38:08.059Z,90.88
2022-11-17T19:43:09.690Z,91.08
2022-11-17T19:48:11.297Z,90.58
2022-11-17T19:53:12.993Z,90.39
2022-11-17T19:58:16.674Z,90.86
2022-11-17T20:03:18.730Z,90.65
2022-11-17T20:08:20.412Z,90.59
2022-11-17T20:13:22.046Z,90.96
2022-11-17T20:18:23.674Z,91.19
2022-11-17T20:23:25.398Z,90.99
2022-11-17T20:28:27.273Z,90.94
2022-11-17T20:33:30.061Z,91.02
2022-11-17T20:38:32.912Z,90.80
2022-11-17T20:43:35.121Z,91.06
2022-11-17T20:48:36.806Z,91.22
2022-11-17T20:53:39.500Z,91.33
2022-11-17T20:58:41.111Z,91.14
2022-11-17T21:03:42.947Z,91.10
2022-11-17T21:08:45.468Z,91.11
2022-11-17T21:13:47.150Z,91.13
2022-11-17T21:18:48.982Z,91.35
2022-11-17T21:23:54.047Z,90.83
2022-11-17T21:28:57.636Z,90.72
2022-11-17T21:34:04.453Z,90.99
2022-11-17T21:39:06.085Z,91.36
2022-11-17T21:44:07.700Z,90.68
2022-11-17T21:49:09.416Z,90.74
2022-11-17T21:54:11.088Z,90.58
2022-11-17T21:59:13.344Z,90.74
2022-11-17T22:04:15.854Z,90.17
2022-11-17T22:09:17.694Z,90.23
2022-11-17T22:14:20.288Z,90.54
2022-11-17T22:19:24.162Z,90.55
2022-11-17T22:24:25.985Z,90.54
2022-11-17T22:29:27.914Z,91.00
2022-11-17T22:34:29.582Z,90.84
2022-11-17T22:39:31.203Z,90.93
2022-11-17T22:44:32.835Z,91.33
2022-11-17T22:49:34.459Z,91.18
2022-11-17T22:54:36.118Z,91.28
2022-11-17T22:59:37.810Z,91.22
2022-11-17T23:04:39.539Z,91.20
2022-11-17T23:09:41.140Z,91.04
2022-11-17T23:14:42.749Z,91.13
2022-11-17T23:19:44.406Z,91.11
2022-11-17T23:24:46.088Z,91.12
2022-11-17T23:29:47.805Z,90.99
2022-11-17T23:34:49.417Z,90.72
2022-11-17T23:39:51.047Z,90.61
2022-11-17T23:44:52.721Z,90.32
2022-11-17T23:49:54.346Z,90.39
2022-11-17T23:54:55.960Z,90.58
2022-11-17T23:59:57.570Z,90.49
